Latest Weather Observations for Brisbane

IDQ60901

Issued at 5:45 pm EST Friday 31 October 2014 (issued every 10 minutes, with the page automatically refreshed every 10 minutes)

About weather observations | Map of Brisbane area stations | Latest observations for Brisbane area | Other Formats
Station Details ID: 040913 Name: BRISBANE Lat: -27.48 Lon: 153.04 Height: 8.13 m
Data from the previous 72 hours. | See also: Recent months at Brisbane
Date/Time
EST
Tmp

°C
App
Tmp
°C
Dew
Point
°C
Rel
Hum
%
Delta-T

°C
Wind Press
QNH
hPa
Press
MSL
hPa
Rain
since
9 am
mm
Dir
 
Spd
km/h
Gust
km/h
Spd
kts
Gust
kts
31/05:30pm 25.3 26.3 18.7 67 4.2 NNE 11 26 6 14 1013.2 1013.2 0.0
31/05:00pm 25.7 26.1 18.9 66 4.3 NNE 15 30 8 16 1013.2 1013.2 0.0
31/04:30pm 26.1 26.1 19.0 65 4.5 NNE 17 30 9 16 1013.0 1013.0 0.0
31/04:00pm 26.9 27.5 18.7 60 5.2 NNE 13 26 7 14 1012.9 1012.9 0.0
31/03:30pm 27.0 27.2 18.6 60 5.4 NNE 15 28 8 15 1012.8 1012.8 0.0
31/03:00pm 28.1 28.7 18.5 56 6.1 NNE 13 28 7 15 1013.0 1013.0 0.0
31/02:30pm 28.7 29.0 17.9 52 6.9 NNE 13 28 7 15 1013.2 1013.2 0.0
31/02:00pm 28.7 28.9 17.6 51 7.0 NE 13 30 7 16 1013.5 1013.5 0.0
31/01:30pm 28.9 29.3 18.1 52 6.9 NE 13 22 7 12 1013.7 1013.7 0.0
31/01:00pm 28.9 29.4 18.4 53 6.7 NE 13 24 7 13 1014.1 1014.1 0.0
31/12:30pm 29.7 31.2 18.8 52 7.0 NNE 9 19 5 10 1014.6 1014.6 0.0
31/12:00pm 29.5 31.2 18.6 52 7.0 N 7 17 4 9 1014.9 1014.9 0.0
31/11:30am 28.9 30.3 18.7 54 6.6 NE 9 15 5 8 1015.3 1015.3 0.0
31/11:00am 29.3 30.8 19.0 53 6.7 ENE 9 20 5 11 1015.6 1015.6 0.0
31/10:30am 28.9 30.0 18.9 54 6.5 ENE 11 17 6 9 1016.0 1016.0 0.0
31/10:00am 28.8 30.3 18.0 52 6.9 NE 7 15 4 8 1016.4 1016.4 0.0
31/09:30am 27.8 28.2 17.3 52 6.6 ENE 11 17 6 9 1016.6 1016.6 0.0
31/09:00am 27.1 28.8 18.1 58 5.7 N 6 9 3 5 1016.8 1016.8 0.0
31/08:30am 26.0 27.9 17.6 60 5.3 NW 4 9 2 5 1017.1 1017.1 0.0
31/08:00am 26.1 28.1 18.8 64 4.7 NW 6 9 3 5 1017.0 1017.0 0.0
31/07:30am 24.9 27.0 18.1 66 4.3 NE 4 7 2 4 1017.0 1017.0 0.0
31/07:00am 23.9 26.5 18.3 71 3.5 WSW 2 4 1 2 1016.9 1016.9 0.0
31/06:30am 23.9 26.1 17.4 67 4.0 NW 2 6 1 3 1016.8 1016.8 0.0
31/06:00am 23.8 25.6 17.5 68 3.9 N 4 9 2 5 1016.5 1016.5 0.0
31/05:30am 23.4 25.5 18.1 72 3.3 NW 4 9 2 5 1016.2 1016.2 0.0
31/05:00am 23.4 25.6 18.3 73 3.2 NE 4 7 2 4 1015.7 1015.7 0.0
31/04:30am 23.4 25.7 17.8 71 3.5 NE 2 6 1 3 1015.3 1015.3 0.0
31/04:00am 23.4 24.9 17.6 70 3.6 NNW 6 9 3 5 1015.1 1015.1 0.0
31/03:30am 23.4 25.4 17.8 71 3.5 NW 4 9 2 5 1015.1 1015.1 0.0
31/03:00am 23.3 25.7 18.0 72 3.3 NW 2 6 1 3 1014.7 1014.7 0.0
31/02:30am 23.3 25.1 18.4 74 3.1 NW 6 9 3 5 1014.7 1014.7 0.0
31/02:00am 23.3 25.8 19.0 77 2.7 NW 4 7 2 4 1014.9 1014.9 0.0
31/01:30am 23.3 25.2 18.6 75 3.0 NNW 6 11 3 6 1015.1 1015.1 0.0
31/01:00am 23.1 26.3 18.8 77 2.7 CALM 0 4 0 2 1015.2 1015.2 0.0
31/12:30am 22.5 26.0 19.5 83 1.9 NNE 0 6 0 3 1015.6 1015.6 0.0
31/12:00am 21.8 25.0 18.8 83 1.9 NE 0 0 0 0 1015.7 1015.7 0.0
 
Date/Time
EST
Tmp

°C
App
Tmp
°C
Dew
Point
°C
Rel
Hum
%
Delta-T

°C
Wind Press
QNH
hPa
Press
MSL
hPa
Rain
since
9 am
mm
Dir
 
Spd
km/h
Gust
km/h
Spd
kts
Gust
kts
30/11:30pm 22.4 24.9 19.0 81 2.1 NNE 4 7 2 4 1016.0 1016.0 0.0
30/11:00pm 22.8 25.4 19.2 80 2.3 N 4 7 2 4 1016.3 1016.3 0.0
30/10:30pm 23.0 25.1 19.0 78 2.5 N 6 11 3 6 1016.5 1016.5 0.0
30/10:00pm 23.1 25.3 19.1 78 2.5 NNE 6 15 3 8 1016.5 1016.5 0.0
30/09:30pm 23.1 25.4 19.5 80 2.3 NE 6 13 3 7 1016.1 1016.1 0.0
30/09:00pm 22.9 24.6 19.3 80 2.3 NE 9 15 5 8 1016.1 1016.1 0.0
30/08:30pm 22.9 25.1 19.1 79 2.4 NE 6 13 3 7 1015.9 1015.9 0.0
30/08:00pm 23.0 24.9 19.0 78 2.5 NNE 7 13 4 7 1015.7 1015.7 0.0
30/07:30pm 23.0 24.8 18.7 77 2.7 NE 7 17 4 9 1015.3 1015.3 0.0
30/07:00pm 23.1 24.6 18.8 77 2.7 NE 9 19 5 10 1014.9 1014.9 0.0
30/06:30pm 23.4 24.1 18.9 76 2.9 ENE 13 26 7 14 1014.6 1014.6 0.0
30/06:00pm 23.5 23.7 18.6 74 3.1 ENE 15 28 8 15 1014.4 1014.4 0.0
30/05:30pm 24.1 24.7 18.7 72 3.4 ENE 13 28 7 15 1014.0 1014.0 0.0
30/05:00pm 25.0 25.5 18.4 66 4.2 ENE 13 20 7 11 1013.8 1013.8 0.0
30/04:30pm 25.4 26.4 18.6 66 4.3 ENE 11 20 6 11 1013.6 1013.6 0.0
30/04:00pm 26.1 26.3 18.5 63 4.8 NE 15 24 8 13 1013.2 1013.2 0.0
30/03:30pm 26.8 26.7 17.0 55 6.1 NE 13 24 7 13 1013.3 1013.3 0.0
30/03:00pm 28.2 29.2 17.7 53 6.6 NE 9 19 5 10 1013.2 1013.2 0.0
30/02:30pm 27.7 27.7 17.3 53 6.5 ENE 13 20 7 11 1013.5 1013.5 0.0
30/02:00pm 27.7 27.6 16.9 51 6.7 ENE 13 20 7 11 1013.7 1013.7 0.0
30/01:30pm 27.6 27.4 16.6 51 6.8 ENE 13 20 7 11 1014.1 1014.1 0.0
30/01:00pm 28.5 28.7 16.7 48 7.4 ENE 11 20 6 11 1014.6 1014.6 0.0
30/12:30pm 28.1 28.0 16.1 48 7.4 NE 11 19 6 10 1015.0 1015.0 0.0
30/12:00pm 28.0 28.1 16.6 50 7.1 ENE 11 20 6 11 1015.6 1015.6 0.0
30/11:30am 28.4 29.0 16.7 49 7.3 NE 9 20 5 11 1015.9 1015.9 0.0
30/11:00am 27.7 28.1 16.3 49 7.0 NE 9 20 5 11 1016.2 1016.2 0.0
30/10:30am 28.3 29.2 16.6 49 7.3 NNE 7 13 4 7 1016.6 1016.6 0.0
30/10:00am 27.7 28.6 16.0 49 7.2 E 6 11 3 6 1017.0 1017.0 0.0
30/09:30am 26.3 27.2 16.0 53 6.3 SSW 6 11 3 6 1017.3 1017.3 0.0
30/09:00am 26.2 27.0 15.9 53 6.3 E 6 13 3 7 1017.7 1017.7 0.0
30/08:30am 25.8 26.8 16.4 56 5.8 ESE 6 13 3 7 1018.1 1018.1 0.0
30/08:00am 24.8 25.7 16.0 58 5.3 S 6 11 3 6 1018.2 1018.2 0.0
30/07:30am 22.9 23.8 15.2 62 4.6 SW 4 9 2 5 1018.4 1018.4 0.0
30/07:00am 22.3 23.4 15.6 66 4.0 S 4 6 2 3 1018.1 1018.1 0.0
30/06:30am 20.6 21.8 14.9 70 3.3 SW 2 6 1 3 1017.8 1017.8 0.0
30/06:00am 19.4 20.5 15.5 78 2.3 SW 4 7 2 4 1017.5 1017.5 0.0
30/05:30am 18.6 19.7 15.7 83 1.7 SW 4 6 2 3 1017.1 1017.1 0.0
30/05:00am 18.4 19.9 15.8 85 1.5 WSW 2 6 1 3 1016.7 1016.7 0.0
30/04:30am 18.6 19.8 15.8 84 1.7 SW 4 7 2 4 1016.4 1016.4 0.0
30/04:00am 18.7 20.0 16.1 85 1.5 WSW 4 7 2 4 1016.3 1016.3 0.0
30/03:30am 18.7 20.7 16.1 85 1.5 CALM 0 4 0 2 1016.2 1016.2 0.0
30/03:00am 19.1 20.5 16.5 85 1.6 SW 4 9 2 5 1016.2 1016.2 0.0
30/02:30am 19.4 21.2 16.4 83 1.8 SSW 2 6 1 3 1016.2 1016.2 0.0
30/02:00am 19.6 21.2 16.8 84 1.7 S 4 7 2 4 1016.2 1016.2 0.0
30/01:30am 19.2 21.1 16.6 85 1.6 S 2 4 1 2 1016.4 1016.4 0.0
30/01:00am 19.3 21.5 16.5 84 1.7 CALM 0 2 0 1 1016.5 1016.5 0.0
30/12:30am 19.7 21.7 16.9 84 1.7 SSE 2 7 1 4 1016.6 1016.6 0.0
30/12:00am 19.2 21.3 16.2 83 1.8 CALM 0 4 0 2 1017.1 1017.1 0.0
 
Date/Time
EST
Tmp

°C
App
Tmp
°C
Dew
Point
°C
Rel
Hum
%
Delta-T

°C
Wind Press
QNH
hPa
Press
MSL
hPa
Rain
since
9 am
mm
Dir
 
Spd
km/h
Gust
km/h
Spd
kts
Gust
kts
29/11:30pm 19.5 21.6 16.3 82 1.9 CALM 0 0 0 0 1017.3 1017.3 0.0
29/11:00pm 19.7 21.8 16.3 81 2.0 CALM 0 6 0 3 1017.5 1017.5 0.0
29/10:30pm 20.0 22.1 16.2 79 2.3 CALM 0 2 0 1 1017.6 1017.6 0.0
29/10:00pm 20.5 22.1 15.9 75 2.7 E 2 4 1 2 1017.5 1017.5 0.0
29/09:30pm 21.3 23.0 16.3 73 3.0 E 2 6 1 3 1017.4 1017.4 0.0
29/09:00pm 21.7 23.2 16.6 73 3.1 E 4 7 2 4 1017.5 1017.5 0.0
29/08:30pm 22.0 23.1 16.5 71 3.3 E 6 9 3 5 1017.3 1017.3 0.0
29/08:00pm 22.4 23.3 16.7 70 3.5 E 7 15 4 8 1016.9 1016.9 0.0
29/07:30pm 22.6 22.9 16.9 70 3.5 ESE 11 17 6 9 1016.5 1016.5 0.0
29/07:00pm 22.8 23.1 17.0 70 3.6 ESE 11 20 6 11 1016.2 1016.2 0.0
29/06:30pm 23.1 22.9 16.6 67 4.0 ESE 13 24 7 13 1015.7 1015.7 0.0
29/06:00pm 23.6 22.2 15.6 61 4.8 E 17 26 9 14 1015.2 1015.2 0.0
29/05:30pm 24.4 24.2 16.6 61 4.8 ESE 13 26 7 14 1014.7 1014.7 0.0
29/05:00pm 25.1 24.4 16.3 58 5.4 E 15 24 8 13 1014.3 1014.3 0.0
29/04:30pm 26.1 24.7 14.6 49 6.9 ESE 15 28 8 15 1013.8 1013.8 0.0
29/04:00pm 27.3 26.1 14.0 44 7.9 ESE 13 30 7 16 1013.4 1013.4 0.0
29/03:30pm 27.6 24.5 11.6 37 9.2 E 19 32 10 17 1013.1 1013.1 0.0
29/03:00pm 28.2 24.8 11.3 35 9.7 E 20 33 11 18 1013.1 1013.1 0.0
29/02:30pm 29.2 26.0 11.3 33 10.3 E 19 30 10 16 1013.2 1013.2 0.0
29/02:00pm 29.8 26.9 10.9 31 10.8 ESE 17 32 9 17 1013.2 1013.2 0.0
29/01:30pm 29.7 27.6 14.7 40 9.1 E 19 30 10 16 1013.3 1013.3 0.0
29/01:00pm 29.5 28.3 17.0 47 7.9 E 19 33 10 18 1013.3 1013.3 0.0
29/12:30pm 29.6 28.1 16.4 45 8.2 E 19 32 10 17 1013.5 1013.5 0.0
29/12:00pm 29.5 28.4 16.3 45 8.2 E 17 30 9 16 1013.8 1013.8 0.0
29/11:30am 30.2 29.7 16.9 44 8.4 ENE 15 22 8 12 1014.0 1014.0 0.0
29/11:00am 30.2 31.1 16.2 42 8.7 NE 6 13 3 7 1014.2 1014.2 0.0
29/10:30am 29.3 29.1 15.8 44 8.3 ESE 11 24 6 13 1014.4 1014.4 0.0
29/10:00am 28.7 28.7 15.2 43 8.2 SE 9 17 5 9 1014.7 1014.7 0.0
29/09:30am 28.3 28.3 14.2 42 8.5 SE 7 17 4 9 1014.9 1014.9 0.0
29/09:00am 27.9 28.8 16.5 50 7.1 S 7 15 4 8 1014.8 1014.8 0.0
29/08:30am 26.5 27.6 16.7 55 6.1 S 6 13 3 7 1014.8 1014.8 0.0
29/08:00am 25.6 27.0 17.8 62 4.9 ESE 7 9 4 5 1014.5 1014.5 0.0
29/07:30am 24.2 26.5 17.7 67 4.1 SSW 2 6 1 3 1014.4 1014.4 0.0
29/07:00am 22.8 25.0 17.5 72 3.3 WSW 2 6 1 3 1014.2 1014.2 0.0
29/06:30am 21.7 23.6 17.7 78 2.5 S 4 6 2 3 1013.8 1013.8 0.0
29/06:00am 20.1 22.5 17.9 87 1.4 SW 2 7 1 4 1013.5 1013.5 0.0
29/05:30am 18.3 20.7 17.1 93 0.7 CALM 0 2 0 1 1012.9 1012.9 0.0
29/05:00am 17.8 19.5 16.3 91 0.9 SSE 2 4 1 2 1012.5 1012.5 0.0
29/04:30am 18.0 20.1 16.2 89 1.1 CALM 0 0 0 0 1012.3 1012.3 0.0
29/04:00am 18.6 20.5 16.8 89 1.1 SSE 2 4 1 2 1012.0 1012.0 0.0
29/03:30am 18.1 19.9 16.4 90 1.0 SSE 2 2 1 1 1011.8 1011.8 0.0
29/03:00am 18.9 21.0 17.2 90 1.0 SSE 2 6 1 3 1011.7 1011.7 0.0
29/02:30am 18.5 20.8 16.7 89 1.1 CALM 0 0 0 0 1011.6 1011.6 0.0
29/02:00am 18.9 21.2 16.7 87 1.3 CALM 0 0 0 0 1011.3 1011.3 0.0
29/01:30am 19.4 21.7 16.8 85 1.6 CALM 0 0 0 0 1011.4 1011.4 0.0
29/01:00am 20.4 22.8 17.0 81 2.1 CALM 0 4 0 2 1011.3 1011.3 0.0
29/12:30am 21.1 23.1 17.9 82 2.0 WSW 4 6 2 3 1011.4 1011.4 0.0
29/12:00am 21.1 23.5 17.9 82 2.0 SW 2 6 1 3 1011.5 1011.5 0.0
 
Date/Time
EST
Tmp

°C
App
Tmp
°C
Dew
Point
°C
Rel
Hum
%
Delta-T

°C
Wind Press
QNH
hPa
Press
MSL
hPa
Rain
since
9 am
mm
Dir
 
Spd
km/h
Gust
km/h
Spd
kts
Gust
kts
28/11:30pm 21.3 23.8 17.3 78 2.5 CALM 0 2 0 1 1011.8 1011.8 0.0
28/11:00pm 21.9 23.8 17.7 77 2.6 S 4 6 2 3 1011.9 1011.9 0.0
28/10:30pm 22.3 24.3 17.9 76 2.7 SSE 4 7 2 4 1012.0 1012.0 0.0
28/10:00pm 22.2 24.1 17.6 75 2.8 SSE 4 7 2 4 1012.1 1012.1 0.0
28/09:30pm 22.1 24.7 17.5 75 2.8 CALM 0 4 0 2 1011.9 1011.9 0.0
28/09:00pm 22.5 24.8 17.8 75 2.9 ESE 2 4 1 2 1011.9 1011.9 0.0
28/08:30pm 22.7 25.4 17.8 74 3.0 CALM 0 2 0 1 1011.9 1011.9 0.0
28/08:00pm 23.1 25.4 17.8 72 3.3 E 2 4 1 2 1011.8 1011.8 0.0
28/07:30pm 23.5 25.0 17.5 69 3.7 E 6 7 3 4 1011.4 1011.4 0.0
28/07:00pm 23.8 25.4 17.8 69 3.7 E 6 7 3 4 1011.1 1011.1 0.0
28/06:30pm 24.3 25.4 18.0 68 4.0 E 9 13 5 7 1010.6 1010.6 0.0
28/06:00pm 24.6 25.4 18.1 67 4.1 E 11 17 6 9 1010.3 1010.3 0.0

Latest Capital City Observations: Canberra | Sydney | Melbourne | Brisbane | Adelaide | Perth | Hobart | Darwin

Other Formats:

Comma delimited format used in spreadsheet applications
http://www.bom.gov.au/fwo/IDQ60901/IDQ60901.94576.axf

JavaScript Object Notation format (JSON) in row-major order
http://www.bom.gov.au/fwo/IDQ60901/IDQ60901.94576.json